sensor_id;sensor_type;location;lat;lon;timestamp;P1;durP1;ratioP1;P2;durP2;ratioP2
15476;SDS011;7840;42.702;23.296;2023-05-10T00:01:52;6.83;;;6.23;;
15476;SDS011;7840;42.702;23.296;2023-05-10T00:04:20;7.10;;;6.40;;
15476;SDS011;7840;42.702;23.296;2023-05-10T00:06:47;6.67;;;6.07;;
15476;SDS011;7840;42.702;23.296;2023-05-10T00:09:16;8.90;;;6.87;;
15476;SDS011;7840;42.702;23.296;2023-05-10T00:11:43;6.70;;;6.10;;
15476;SDS011;7840;42.702;23.296;2023-05-10T00:14:10;7.93;;;7.10;;
15476;SDS011;7840;42.702;23.296;2023-05-10T00:16:38;7.90;;;7.20;;
15476;SDS011;7840;42.702;23.296;2023-05-10T00:22:23;8.93;;;8.17;;
15476;SDS011;7840;42.702;23.296;2023-05-10T00:24:52;9.13;;;8.33;;
15476;SDS011;7840;42.702;23.296;2023-05-10T00:27:20;9.67;;;8.77;;
15476;SDS011;7840;42.702;23.296;2023-05-10T00:29:47;9.20;;;8.40;;
15476;SDS011;7840;42.702;23.296;2023-05-10T00:32:14;10.40;;;9.50;;
15476;SDS011;7840;42.702;23.296;2023-05-10T00:34:42;9.53;;;8.73;;
15476;SDS011;7840;42.702;23.296;2023-05-10T00:37:09;10.57;;;9.40;;
15476;SDS011;7840;42.702;23.296;2023-05-10T00:39:36;10.07;;;9.07;;
15476;SDS011;7840;42.702;23.296;2023-05-10T00:42:05;10.90;;;9.80;;
15476;SDS011;7840;42.702;23.296;2023-05-10T00:44:32;10.13;;;9.33;;
15476;SDS011;7840;42.702;23.296;2023-05-10T00:46:59;10.57;;;9.67;;
15476;SDS011;7840;42.702;23.296;2023-05-10T00:49:27;10.83;;;9.90;;
15476;SDS011;7840;42.702;23.296;2023-05-10T00:51:54;10.70;;;9.70;;
15476;SDS011;7840;42.702;23.296;2023-05-10T00:54:40;11.20;;;10.20;;
15476;SDS011;7840;42.702;23.296;2023-05-10T00:57:08;10.63;;;9.73;;
15476;SDS011;7840;42.702;23.296;2023-05-10T00:59:36;10.73;;;9.73;;
15476;SDS011;7840;42.702;23.296;2023-05-10T01:02:03;9.90;;;9.10;;
15476;SDS011;7840;42.702;23.296;2023-05-10T01:04:31;11.23;;;10.13;;
15476;SDS011;7840;42.702;23.296;2023-05-10T01:06:58;12.13;;;10.93;;
15476;SDS011;7840;42.702;23.296;2023-05-10T01:09:26;11.37;;;10.40;;
15476;SDS011;7840;42.702;23.296;2023-05-10T01:11:53;11.17;;;10.27;;
15476;SDS011;7840;42.702;23.296;2023-05-10T01:14:22;10.43;;;9.63;;
15476;SDS011;7840;42.702;23.296;2023-05-10T01:16:50;11.17;;;10.20;;
15476;SDS011;7840;42.702;23.296;2023-05-10T01:22:25;10.73;;;9.87;;
15476;SDS011;7840;42.702;23.296;2023-05-10T01:25:02;10.60;;;9.60;;
15476;SDS011;7840;42.702;23.296;2023-05-10T01:32:49;10.10;;;9.20;;
15476;SDS011;7840;42.702;23.296;2023-05-10T01:35:22;9.30;;;8.50;;
15476;SDS011;7840;42.702;23.296;2023-05-10T01:37:56;9.17;;;8.37;;
15476;SDS011;7840;42.702;23.296;2023-05-10T01:40:25;8.63;;;7.90;;
15476;SDS011;7840;42.702;23.296;2023-05-10T01:42:54;10.23;;;8.50;;
15476;SDS011;7840;42.702;23.296;2023-05-10T01:45:24;9.27;;;8.37;;
15476;SDS011;7840;42.702;23.296;2023-05-10T01:47:57;9.37;;;8.63;;
15476;SDS011;7840;42.702;23.296;2023-05-10T01:50:27;9.43;;;8.73;;
15476;SDS011;7840;42.702;23.296;2023-05-10T01:52:57;8.60;;;7.80;;
15476;SDS011;7840;42.702;23.296;2023-05-10T01:55:25;9.33;;;8.50;;
15476;SDS011;7840;42.702;23.296;2023-05-10T01:57:56;8.53;;;7.87;;
15476;SDS011;7840;42.702;23.296;2023-05-10T02:00:24;8.27;;;7.57;;
15476;SDS011;7840;42.702;23.296;2023-05-10T02:02:52;8.80;;;8.00;;
15476;SDS011;7840;42.702;23.296;2023-05-10T02:05:21;8.50;;;7.83;;
15476;SDS011;7840;42.702;23.296;2023-05-10T02:07:49;8.43;;;7.73;;
15476;SDS011;7840;42.702;23.296;2023-05-10T02:10:16;8.03;;;7.33;;
15476;SDS011;7840;42.702;23.296;2023-05-10T02:12:45;8.30;;;7.60;;
15476;SDS011;7840;42.702;23.296;2023-05-10T02:15:14;7.87;;;7.27;;
15476;SDS011;7840;42.702;23.296;2023-05-10T02:17:42;7.83;;;7.13;;
15476;SDS011;7840;42.702;23.296;2023-05-10T02:20:10;7.17;;;6.57;;
15476;SDS011;7840;42.702;23.296;2023-05-10T02:22:39;6.27;;;5.77;;
15476;SDS011;7840;42.702;23.296;2023-05-10T02:25:07;6.67;;;6.07;;
15476;SDS011;7840;42.702;23.296;2023-05-10T02:27:35;6.00;;;5.50;;
15476;SDS011;7840;42.702;23.296;2023-05-10T02:30:04;5.30;;;4.90;;
15476;SDS011;7840;42.702;23.296;2023-05-10T02:32:32;5.93;;;5.33;;
15476;SDS011;7840;42.702;23.296;2023-05-10T02:34:59;5.30;;;4.90;;
15476;SDS011;7840;42.702;23.296;2023-05-10T02:37:28;6.67;;;6.07;;
15476;SDS011;7840;42.702;23.296;2023-05-10T02:39:57;5.67;;;5.17;;
15476;SDS011;7840;42.702;23.296;2023-05-10T02:42:26;5.93;;;5.30;;
15476;SDS011;7840;42.702;23.296;2023-05-10T02:44:54;6.23;;;5.13;;
15476;SDS011;7840;42.702;23.296;2023-05-10T02:47:23;5.07;;;4.67;;
15476;SDS011;7840;42.702;23.296;2023-05-10T02:49:50;7.47;;;5.33;;
15476;SDS011;7840;42.702;23.296;2023-05-10T02:52:19;7.23;;;5.23;;
15476;SDS011;7840;42.702;23.296;2023-05-10T02:54:49;5.10;;;4.60;;
15476;SDS011;7840;42.702;23.296;2023-05-10T02:57:21;5.30;;;4.80;;
15476;SDS011;7840;42.702;23.296;2023-05-10T02:59:49;5.33;;;4.80;;
15476;SDS011;7840;42.702;23.296;2023-05-10T03:02:16;5.13;;;4.63;;
15476;SDS011;7840;42.702;23.296;2023-05-10T03:04:44;6.17;;;4.30;;
15476;SDS011;7840;42.702;23.296;2023-05-10T03:07:11;5.13;;;4.70;;
15476;SDS011;7840;42.702;23.296;2023-05-10T03:09:39;5.37;;;4.80;;
15476;SDS011;7840;42.702;23.296;2023-05-10T03:12:07;6.40;;;4.50;;
15476;SDS011;7840;42.702;23.296;2023-05-10T03:14:42;5.60;;;4.63;;
15476;SDS011;7840;42.702;23.296;2023-05-10T03:17:14;5.00;;;4.60;;
15476;SDS011;7840;42.702;23.296;2023-05-10T03:19:43;5.43;;;4.93;;
15476;SDS011;7840;42.702;23.296;2023-05-10T03:22:16;5.80;;;5.30;;
15476;SDS011;7840;42.702;23.296;2023-05-10T03:24:44;5.80;;;5.30;;
15476;SDS011;7840;42.702;23.296;2023-05-10T03:27:12;5.20;;;4.70;;
15476;SDS011;7840;42.702;23.296;2023-05-10T03:29:42;6.53;;;5.90;;
15476;SDS011;7840;42.702;23.296;2023-05-10T03:34:47;6.80;;;6.10;;
15476;SDS011;7840;42.702;23.296;2023-05-10T03:37:18;6.53;;;5.90;;
15476;SDS011;7840;42.702;23.296;2023-05-10T03:39:45;6.50;;;5.90;;
15476;SDS011;7840;42.702;23.296;2023-05-10T03:42:13;7.23;;;5.60;;
15476;SDS011;7840;42.702;23.296;2023-05-10T03:44:40;9.20;;;5.93;;
15476;SDS011;7840;42.702;23.296;2023-05-10T03:47:09;7.23;;;5.50;;
15476;SDS011;7840;42.702;23.296;2023-05-10T03:49:36;6.23;;;5.63;;
15476;SDS011;7840;42.702;23.296;2023-05-10T03:52:03;7.10;;;5.23;;
15476;SDS011;7840;42.702;23.296;2023-05-10T03:54:31;6.17;;;5.57;;
15476;SDS011;7840;42.702;23.296;2023-05-10T03:56:58;5.93;;;5.33;;
15476;SDS011;7840;42.702;23.296;2023-05-10T03:59:26;7.03;;;5.53;;
15476;SDS011;7840;42.702;23.296;2023-05-10T04:01:53;6.13;;;5.17;;
15476;SDS011;7840;42.702;23.296;2023-05-10T04:04:22;5.73;;;5.00;;
15476;SDS011;7840;42.702;23.296;2023-05-10T04:06:49;5.80;;;5.30;;
15476;SDS011;7840;42.702;23.296;2023-05-10T04:09:17;5.70;;;5.20;;
15476;SDS011;7840;42.702;23.296;2023-05-10T04:11:44;7.67;;;5.97;;
15476;SDS011;7840;42.702;23.296;2023-05-10T04:14:11;6.33;;;5.80;;
15476;SDS011;7840;42.702;23.296;2023-05-10T04:16:38;6.77;;;6.07;;
15476;SDS011;7840;42.702;23.296;2023-05-10T04:19:06;7.07;;;5.40;;
15476;SDS011;7840;42.702;23.296;2023-05-10T04:21:34;6.57;;;5.93;;
15476;SDS011;7840;42.702;23.296;2023-05-10T04:24:02;7.50;;;6.20;;
15476;SDS011;7840;42.702;23.296;2023-05-10T04:26:29;8.07;;;5.63;;
15476;SDS011;7840;42.702;23.296;2023-05-10T04:28:56;6.83;;;6.13;;
15476;SDS011;7840;42.702;23.296;2023-05-10T04:31:24;8.00;;;5.70;;
15476;SDS011;7840;42.702;23.296;2023-05-10T04:33:51;6.40;;;5.80;;
15476;SDS011;7840;42.702;23.296;2023-05-10T04:36:19;6.93;;;6.03;;
15476;SDS011;7840;42.702;23.296;2023-05-10T04:38:47;7.03;;;6.40;;
15476;SDS011;7840;42.702;23.296;2023-05-10T04:41:14;7.40;;;6.70;;
15476;SDS011;7840;42.702;23.296;2023-05-10T04:43:42;7.67;;;6.87;;
15476;SDS011;7840;42.702;23.296;2023-05-10T04:46:09;6.33;;;5.83;;
15476;SDS011;7840;42.702;23.296;2023-05-10T04:48:36;7.77;;;6.90;;
15476;SDS011;7840;42.702;23.296;2023-05-10T04:51:03;9.23;;;6.47;;
15476;SDS011;7840;42.702;23.296;2023-05-10T04:53:31;6.77;;;6.07;;
15476;SDS011;7840;42.702;23.296;2023-05-10T04:56:00;7.30;;;6.60;;
15476;SDS011;7840;42.702;23.296;2023-05-10T04:58:27;9.07;;;6.60;;
15476;SDS011;7840;42.702;23.296;2023-05-10T05:00:55;9.93;;;6.23;;
15476;SDS011;7840;42.702;23.296;2023-05-10T05:03:22;8.17;;;6.53;;
15476;SDS011;7840;42.702;23.296;2023-05-10T05:05:49;7.80;;;6.30;;
15476;SDS011;7840;42.702;23.296;2023-05-10T05:08:16;6.80;;;6.10;;
15476;SDS011;7840;42.702;23.296;2023-05-10T05:10:44;7.60;;;6.90;;
15476;SDS011;7840;42.702;23.296;2023-05-10T05:13:13;6.47;;;5.87;;
15476;SDS011;7840;42.702;23.296;2023-05-10T05:15:40;6.90;;;6.27;;
15476;SDS011;7840;42.702;23.296;2023-05-10T05:18:08;6.60;;;5.90;;
15476;SDS011;7840;42.702;23.296;2023-05-10T05:20:35;8.10;;;6.20;;
15476;SDS011;7840;42.702;23.296;2023-05-10T05:23:02;7.13;;;6.43;;
15476;SDS011;7840;42.702;23.296;2023-05-10T05:25:30;8.90;;;6.43;;
15476;SDS011;7840;42.702;23.296;2023-05-10T05:27:57;7.63;;;6.93;;
15476;SDS011;7840;42.702;23.296;2023-05-10T05:30:26;9.90;;;7.10;;
15476;SDS011;7840;42.702;23.296;2023-05-10T05:32:53;7.60;;;6.90;;
15476;SDS011;7840;42.702;23.296;2023-05-10T05:35:21;7.80;;;7.10;;
15476;SDS011;7840;42.702;23.296;2023-05-10T05:37:49;7.77;;;7.00;;
15476;SDS011;7840;42.702;23.296;2023-05-10T05:40:16;8.27;;;6.80;;
15476;SDS011;7840;42.702;23.296;2023-05-10T05:42:43;8.57;;;7.77;;
15476;SDS011;7840;42.702;23.296;2023-05-10T05:45:10;8.50;;;7.70;;
15476;SDS011;7840;42.702;23.296;2023-05-10T05:47:40;8.73;;;7.93;;
15476;SDS011;7840;42.702;23.296;2023-05-10T05:50:08;9.30;;;7.93;;
15476;SDS011;7840;42.702;23.296;2023-05-10T05:52:35;8.60;;;7.30;;
15476;SDS011;7840;42.702;23.296;2023-05-10T05:55:03;8.80;;;7.80;;
15476;SDS011;7840;42.702;23.296;2023-05-10T05:57:30;9.83;;;8.07;;
15476;SDS011;7840;42.702;23.296;2023-05-10T05:59:57;10.17;;;8.53;;
15476;SDS011;7840;42.702;23.296;2023-05-10T06:02:24;10.73;;;8.00;;
15476;SDS011;7840;42.702;23.296;2023-05-10T06:04:53;9.13;;;8.00;;
15476;SDS011;7840;42.702;23.296;2023-05-10T06:07:20;9.57;;;7.97;;
15476;SDS011;7840;42.702;23.296;2023-05-10T06:09:48;11.07;;;7.40;;
15476;SDS011;7840;42.702;23.296;2023-05-10T06:12:15;8.57;;;7.73;;
15476;SDS011;7840;42.702;23.296;2023-05-10T06:14:42;10.17;;;9.13;;
15476;SDS011;7840;42.702;23.296;2023-05-10T06:17:09;9.87;;;8.30;;
15476;SDS011;7840;42.702;23.296;2023-05-10T06:19:37;10.20;;;8.10;;
15476;SDS011;7840;42.702;23.296;2023-05-10T06:22:05;9.63;;;8.10;;
15476;SDS011;7840;42.702;23.296;2023-05-10T06:24:33;8.97;;;8.17;;
15476;SDS011;7840;42.702;23.296;2023-05-10T06:27:03;9.83;;;8.63;;
15476;SDS011;7840;42.702;23.296;2023-05-10T06:29:30;9.47;;;7.23;;
15476;SDS011;7840;42.702;23.296;2023-05-10T06:31:57;8.70;;;7.80;;
15476;SDS011;7840;42.702;23.296;2023-05-10T06:34:25;8.70;;;7.83;;
15476;SDS011;7840;42.702;23.296;2023-05-10T06:36:52;8.77;;;7.07;;
15476;SDS011;7840;42.702;23.296;2023-05-10T06:39:21;8.50;;;7.70;;
15476;SDS011;7840;42.702;23.296;2023-05-10T06:41:48;12.53;;;7.73;;
15476;SDS011;7840;42.702;23.296;2023-05-10T06:44:15;9.30;;;7.53;;
15476;SDS011;7840;42.702;23.296;2023-05-10T06:46:43;8.03;;;7.33;;
15476;SDS011;7840;42.702;23.296;2023-05-10T06:49:11;11.37;;;7.63;;
15476;SDS011;7840;42.702;23.296;2023-05-10T06:51:38;9.47;;;7.67;;
15476;SDS011;7840;42.702;23.296;2023-05-10T06:54:06;8.00;;;6.80;;
15476;SDS011;7840;42.702;23.296;2023-05-10T06:56:35;7.13;;;6.53;;
15476;SDS011;7840;42.702;23.296;2023-05-10T06:59:02;10.30;;;7.40;;
15476;SDS011;7840;42.702;23.296;2023-05-10T07:01:29;9.57;;;6.63;;
15476;SDS011;7840;42.702;23.296;2023-05-10T07:03:56;7.40;;;6.47;;
15476;SDS011;7840;42.702;23.296;2023-05-10T07:06:24;10.90;;;7.43;;
15476;SDS011;7840;42.702;23.296;2023-05-10T07:08:51;8.67;;;7.73;;
15476;SDS011;7840;42.702;23.296;2023-05-10T07:11:18;9.33;;;8.33;;
15476;SDS011;7840;42.702;23.296;2023-05-10T07:13:47;9.47;;;8.07;;
15476;SDS011;7840;42.702;23.296;2023-05-10T07:16:14;10.33;;;7.83;;
15476;SDS011;7840;42.702;23.296;2023-05-10T07:18:42;13.07;;;9.70;;
15476;SDS011;7840;42.702;23.296;2023-05-10T07:21:09;7.13;;;6.40;;
15476;SDS011;7840;42.702;23.296;2023-05-10T07:23:37;7.20;;;6.60;;
15476;SDS011;7840;42.702;23.296;2023-05-10T07:26:04;7.83;;;6.97;;
15476;SDS011;7840;42.702;23.296;2023-05-10T07:28:32;8.07;;;6.97;;
15476;SDS011;7840;42.702;23.296;2023-05-10T07:31:03;7.20;;;6.53;;
15476;SDS011;7840;42.702;23.296;2023-05-10T07:33:30;6.97;;;6.20;;
15476;SDS011;7840;42.702;23.296;2023-05-10T07:35:57;8.63;;;7.77;;
15476;SDS011;7840;42.702;23.296;2023-05-10T07:38:25;7.83;;;7.03;;
15476;SDS011;7840;42.702;23.296;2023-05-10T07:40:52;8.07;;;7.27;;
15476;SDS011;7840;42.702;23.296;2023-05-10T07:43:19;9.87;;;7.67;;
15476;SDS011;7840;42.702;23.296;2023-05-10T07:45:46;7.67;;;6.37;;
15476;SDS011;7840;42.702;23.296;2023-05-10T07:48:15;10.00;;;8.70;;
15476;SDS011;7840;42.702;23.296;2023-05-10T07:50:42;9.40;;;8.43;;
15476;SDS011;7840;42.702;23.296;2023-05-10T07:53:10;9.27;;;8.30;;
15476;SDS011;7840;42.702;23.296;2023-05-10T07:55:37;10.30;;;7.67;;
15476;SDS011;7840;42.702;23.296;2023-05-10T07:58:04;8.63;;;7.60;;
15476;SDS011;7840;42.702;23.296;2023-05-10T08:00:32;11.77;;;6.93;;
15476;SDS011;7840;42.702;23.296;2023-05-10T08:03:00;8.63;;;7.73;;
15476;SDS011;7840;42.702;23.296;2023-05-10T08:05:28;12.93;;;11.73;;
15476;SDS011;7840;42.702;23.296;2023-05-10T08:07:56;9.47;;;8.67;;
15476;SDS011;7840;42.702;23.296;2023-05-10T08:10:24;8.23;;;7.47;;
15476;SDS011;7840;42.702;23.296;2023-05-10T08:12:52;8.57;;;7.77;;
15476;SDS011;7840;42.702;23.296;2023-05-10T08:15:19;7.93;;;7.20;;
15476;SDS011;7840;42.702;23.296;2023-05-10T08:17:46;7.77;;;7.13;;
15476;SDS011;7840;42.702;23.296;2023-05-10T08:20:13;11.97;;;6.63;;
15476;SDS011;7840;42.702;23.296;2023-05-10T08:22:44;9.90;;;7.40;;
15476;SDS011;7840;42.702;23.296;2023-05-10T08:25:11;6.90;;;6.30;;
15476;SDS011;7840;42.702;23.296;2023-05-10T08:27:39;10.83;;;8.60;;
15476;SDS011;7840;42.702;23.296;2023-05-10T08:30:06;8.33;;;7.60;;
15476;SDS011;7840;42.702;23.296;2023-05-10T08:32:34;9.60;;;7.07;;
15476;SDS011;7840;42.702;23.296;2023-05-10T08:35:03;8.60;;;7.70;;
15476;SDS011;7840;42.702;23.296;2023-05-10T08:37:30;10.00;;;7.93;;
15476;SDS011;7840;42.702;23.296;2023-05-10T08:39:59;7.47;;;6.77;;
15476;SDS011;7840;42.702;23.296;2023-05-10T08:42:28;10.73;;;8.20;;
15476;SDS011;7840;42.702;23.296;2023-05-10T08:44:55;8.83;;;8.07;;
15476;SDS011;7840;42.702;23.296;2023-05-10T08:47:24;9.87;;;7.90;;
15476;SDS011;7840;42.702;23.296;2023-05-10T08:49:52;8.90;;;8.00;;
15476;SDS011;7840;42.702;23.296;2023-05-10T08:52:19;8.20;;;7.50;;
15476;SDS011;7840;42.702;23.296;2023-05-10T08:54:47;7.93;;;7.03;;
15476;SDS011;7840;42.702;23.296;2023-05-10T08:57:16;7.33;;;6.73;;
15476;SDS011;7840;42.702;23.296;2023-05-10T08:59:44;7.50;;;6.80;;
15476;SDS011;7840;42.702;23.296;2023-05-10T09:02:11;8.00;;;7.27;;
15476;SDS011;7840;42.702;23.296;2023-05-10T09:04:40;8.23;;;7.27;;
15476;SDS011;7840;42.702;23.296;2023-05-10T09:07:07;8.83;;;8.03;;
15476;SDS011;7840;42.702;23.296;2023-05-10T09:09:35;8.60;;;7.70;;
15476;SDS011;7840;42.702;23.296;2023-05-10T09:12:04;9.13;;;8.20;;
15476;SDS011;7840;42.702;23.296;2023-05-10T09:14:33;11.00;;;8.50;;
15476;SDS011;7840;42.702;23.296;2023-05-10T09:17:02;8.77;;;7.97;;
15476;SDS011;7840;42.702;23.296;2023-05-10T09:19:33;7.83;;;7.03;;
15476;SDS011;7840;42.702;23.296;2023-05-10T09:22:00;8.23;;;7.47;;
15476;SDS011;7840;42.702;23.296;2023-05-10T09:24:52;10.43;;;6.83;;
15476;SDS011;7840;42.702;23.296;2023-05-10T09:27:31;8.70;;;7.83;;
15476;SDS011;7840;42.702;23.296;2023-05-10T09:30:02;8.33;;;7.43;;
15476;SDS011;7840;42.702;23.296;2023-05-10T09:32:39;7.50;;;6.80;;
15476;SDS011;7840;42.702;23.296;2023-05-10T09:35:08;8.53;;;7.20;;
15476;SDS011;7840;42.702;23.296;2023-05-10T09:37:35;8.73;;;7.73;;
15476;SDS011;7840;42.702;23.296;2023-05-10T09:40:06;9.40;;;6.13;;
15476;SDS011;7840;42.702;23.296;2023-05-10T09:42:38;8.00;;;6.63;;
15476;SDS011;7840;42.702;23.296;2023-05-10T09:45:07;8.23;;;7.00;;
15476;SDS011;7840;42.702;23.296;2023-05-10T09:47:35;8.13;;;7.32;;
15476;SDS011;7840;42.702;23.296;2023-05-10T09:50:03;8.43;;;7.63;;
15476;SDS011;7840;42.702;23.296;2023-05-10T09:52:30;8.43;;;7.60;;
15476;SDS011;7840;42.702;23.296;2023-05-10T09:55:12;8.77;;;7.87;;
15476;SDS011;7840;42.702;23.296;2023-05-10T09:57:39;7.63;;;7.03;;
15476;SDS011;7840;42.702;23.296;2023-05-10T10:00:09;8.80;;;7.93;;
15476;SDS011;7840;42.702;23.296;2023-05-10T10:02:38;8.82;;;7.97;;
15476;SDS011;7840;42.702;23.296;2023-05-10T10:05:06;9.38;;;7.68;;
15476;SDS011;7840;42.702;23.296;2023-05-10T10:07:33;7.72;;;6.88;;
15476;SDS011;7840;42.702;23.296;2023-05-10T10:10:01;9.57;;;7.57;;
15476;SDS011;7840;42.702;23.296;2023-05-10T10:12:30;7.70;;;6.80;;
15476;SDS011;7840;42.702;23.296;2023-05-10T10:14:57;12.13;;;7.57;;
15476;SDS011;7840;42.702;23.296;2023-05-10T10:17:27;12.02;;;7.68;;
15476;SDS011;7840;42.702;23.296;2023-05-10T10:19:56;12.65;;;7.72;;
15476;SDS011;7840;42.702;23.296;2023-05-10T10:22:24;9.70;;;7.22;;
15476;SDS011;7840;42.702;23.296;2023-05-10T10:24:51;8.65;;;7.75;;
15476;SDS011;7840;42.702;23.296;2023-05-10T10:27:20;7.35;;;6.65;;
15476;SDS011;7840;42.702;23.296;2023-05-10T10:29:58;8.68;;;7.57;;
15476;SDS011;7840;42.702;23.296;2023-05-10T10:32:33;7.50;;;6.70;;
15476;SDS011;7840;42.702;23.296;2023-05-10T10:35:05;7.20;;;6.38;;
15476;SDS011;7840;42.702;23.296;2023-05-10T10:37:43;8.98;;;6.97;;
15476;SDS011;7840;42.702;23.296;2023-05-10T10:40:23;6.05;;;5.55;;
15476;SDS011;7840;42.702;23.296;2023-05-10T10:42:51;7.07;;;5.53;;
15476;SDS011;7840;42.702;23.296;2023-05-10T10:45:19;8.68;;;5.95;;
15476;SDS011;7840;42.702;23.296;2023-05-10T10:47:48;6.72;;;6.03;;
15476;SDS011;7840;42.702;23.296;2023-05-10T10:50:16;6.05;;;5.40;;
15476;SDS011;7840;42.702;23.296;2023-05-10T10:52:44;7.75;;;5.90;;
15476;SDS011;7840;42.702;23.296;2023-05-10T10:55:14;8.95;;;6.32;;
15476;SDS011;7840;42.702;23.296;2023-05-10T10:57:45;7.63;;;5.47;;
15476;SDS011;7840;42.702;23.296;2023-05-10T11:00:25;7.93;;;6.55;;
15476;SDS011;7840;42.702;23.296;2023-05-10T11:02:55;5.30;;;4.90;;
15476;SDS011;7840;42.702;23.296;2023-05-10T11:05:24;6.97;;;5.88;;
15476;SDS011;7840;42.702;23.296;2023-05-10T11:07:51;6.25;;;5.53;;
15476;SDS011;7840;42.702;23.296;2023-05-10T11:10:19;8.25;;;5.82;;
15476;SDS011;7840;42.702;23.296;2023-05-10T11:12:50;7.10;;;5.07;;
15476;SDS011;7840;42.702;23.296;2023-05-10T11:15:18;6.05;;;5.40;;
15476;SDS011;7840;42.702;23.296;2023-05-10T11:17:47;7.40;;;5.72;;
15476;SDS011;7840;42.702;23.296;2023-05-10T11:20:18;9.00;;;5.72;;
15476;SDS011;7840;42.702;23.296;2023-05-10T11:22:51;5.60;;;4.80;;
15476;SDS011;7840;42.702;23.296;2023-05-10T11:25:19;7.13;;;5.90;;
15476;SDS011;7840;42.702;23.296;2023-05-10T11:27:47;8.73;;;5.97;;
15476;SDS011;7840;42.702;23.296;2023-05-10T11:30:14;6.03;;;5.40;;
15476;SDS011;7840;42.702;23.296;2023-05-10T11:32:42;6.60;;;5.70;;
15476;SDS011;7840;42.702;23.296;2023-05-10T11:35:10;8.27;;;5.40;;
15476;SDS011;7840;42.702;23.296;2023-05-10T11:37:41;6.50;;;5.18;;
15476;SDS011;7840;42.702;23.296;2023-05-10T11:40:10;6.13;;;5.63;;
15476;SDS011;7840;42.702;23.296;2023-05-10T11:42:38;6.20;;;5.30;;
15476;SDS011;7840;42.702;23.296;2023-05-10T11:45:06;6.28;;;5.68;;
15476;SDS011;7840;42.702;23.296;2023-05-10T11:47:34;6.43;;;5.40;;
15476;SDS011;7840;42.702;23.296;2023-05-10T11:50:02;7.00;;;6.05;;
15476;SDS011;7840;42.702;23.296;2023-05-10T11:52:34;5.90;;;5.40;;
15476;SDS011;7840;42.702;23.296;2023-05-10T11:55:04;5.65;;;5.07;;
15476;SDS011;7840;42.702;23.296;2023-05-10T11:57:31;7.55;;;4.82;;
15476;SDS011;7840;42.702;23.296;2023-05-10T11:59:59;6.85;;;5.80;;
15476;SDS011;7840;42.702;23.296;2023-05-10T12:02:28;10.73;;;6.40;;
15476;SDS011;7840;42.702;23.296;2023-05-10T12:04:56;6.20;;;5.60;;
15476;SDS011;7840;42.702;23.296;2023-05-10T12:07:23;7.13;;;5.53;;
15476;SDS011;7840;42.702;23.296;2023-05-10T12:10:04;9.30;;;5.60;;
15476;SDS011;7840;42.702;23.296;2023-05-10T12:12:35;8.32;;;5.68;;
15476;SDS011;7840;42.702;23.296;2023-05-10T12:15:02;6.72;;;6.05;;
15476;SDS011;7840;42.702;23.296;2023-05-10T12:17:30;8.40;;;5.60;;
15476;SDS011;7840;42.702;23.296;2023-05-10T12:19:58;7.88;;;6.38;;
15476;SDS011;7840;42.702;23.296;2023-05-10T12:22:26;7.05;;;6.35;;
15476;SDS011;7840;42.702;23.296;2023-05-10T12:24:53;6.80;;;6.10;;
15476;SDS011;7840;42.702;23.296;2023-05-10T12:27:21;6.55;;;5.55;;
15476;SDS011;7840;42.702;23.296;2023-05-10T12:29:49;11.25;;;6.45;;
15476;SDS011;7840;42.702;23.296;2023-05-10T12:32:16;7.63;;;6.32;;
15476;SDS011;7840;42.702;23.296;2023-05-10T12:34:43;6.38;;;5.88;;
15476;SDS011;7840;42.702;23.296;2023-05-10T12:37:13;6.75;;;5.97;;
15476;SDS011;7840;42.702;23.296;2023-05-10T12:39:41;7.03;;;6.28;;
15476;SDS011;7840;42.702;23.296;2023-05-10T12:42:09;8.85;;;6.13;;
15476;SDS011;7840;42.702;23.296;2023-05-10T12:44:38;8.77;;;6.53;;
15476;SDS011;7840;42.702;23.296;2023-05-10T12:47:06;7.45;;;6.05;;
15476;SDS011;7840;42.702;23.296;2023-05-10T12:49:33;7.03;;;6.32;;
15476;SDS011;7840;42.702;23.296;2023-05-10T12:52:00;5.72;;;5.22;;
15476;SDS011;7840;42.702;23.296;2023-05-10T12:54:27;8.20;;;6.55;;
15476;SDS011;7840;42.702;23.296;2023-05-10T12:56:55;7.30;;;6.53;;
15476;SDS011;7840;42.702;23.296;2023-05-10T12:59:22;7.18;;;6.57;;
15476;SDS011;7840;42.702;23.296;2023-05-10T13:01:51;7.55;;;6.05;;
15476;SDS011;7840;42.702;23.296;2023-05-10T13:04:44;6.40;;;5.80;;
15476;SDS011;7840;42.702;23.296;2023-05-10T13:07:11;6.70;;;6.10;;
15476;SDS011;7840;42.702;23.296;2023-05-10T13:09:39;6.78;;;6.18;;
15476;SDS011;7840;42.702;23.296;2023-05-10T13:12:06;7.82;;;6.30;;
15476;SDS011;7840;42.702;23.296;2023-05-10T13:14:33;7.32;;;6.45;;
15476;SDS011;7840;42.702;23.296;2023-05-10T13:17:01;6.65;;;6.15;;
15476;SDS011;7840;42.702;23.296;2023-05-10T13:19:28;6.30;;;5.75;;
15476;SDS011;7840;42.702;23.296;2023-05-10T13:21:56;7.13;;;6.43;;
15476;SDS011;7840;42.702;23.296;2023-05-10T13:24:24;7.18;;;6.35;;
15476;SDS011;7840;42.702;23.296;2023-05-10T13:26:51;7.45;;;6.70;;
15476;SDS011;7840;42.702;23.296;2023-05-10T13:29:18;7.65;;;6.95;;
15476;SDS011;7840;42.702;23.296;2023-05-10T13:31:47;9.55;;;6.25;;
15476;SDS011;7840;42.702;23.296;2023-05-10T13:34:14;8.05;;;6.82;;
15476;SDS011;7840;42.702;23.296;2023-05-10T13:36:45;10.35;;;6.85;;
15476;SDS011;7840;42.702;23.296;2023-05-10T13:39:14;9.55;;;7.72;;
15476;SDS011;7840;42.702;23.296;2023-05-10T13:41:41;6.95;;;6.35;;
15476;SDS011;7840;42.702;23.296;2023-05-10T13:44:09;12.43;;;6.75;;
15476;SDS011;7840;42.702;23.296;2023-05-10T13:46:37;6.20;;;5.60;;
15476;SDS011;7840;42.702;23.296;2023-05-10T13:49:04;8.52;;;6.30;;
15476;SDS011;7840;42.702;23.296;2023-05-10T13:51:33;8.38;;;5.50;;
15476;SDS011;7840;42.702;23.296;2023-05-10T13:54:00;6.22;;;5.63;;
15476;SDS011;7840;42.702;23.296;2023-05-10T13:56:35;6.45;;;5.88;;
15476;SDS011;7840;42.702;23.296;2023-05-10T13:59:04;10.32;;;6.70;;
15476;SDS011;7840;42.702;23.296;2023-05-10T14:01:32;8.25;;;6.10;;
15476;SDS011;7840;42.702;23.296;2023-05-10T14:04:00;9.38;;;6.55;;
15476;SDS011;7840;42.702;23.296;2023-05-10T14:06:27;7.32;;;6.53;;
15476;SDS011;7840;42.702;23.296;2023-05-10T14:08:54;7.80;;;6.95;;
15476;SDS011;7840;42.702;23.296;2023-05-10T14:11:22;8.70;;;6.63;;
15476;SDS011;7840;42.702;23.296;2023-05-10T14:13:51;11.13;;;6.90;;
15476;SDS011;7840;42.702;23.296;2023-05-10T14:16:18;9.02;;;7.20;;
15476;SDS011;7840;42.702;23.296;2023-05-10T14:18:45;9.00;;;6.70;;
15476;SDS011;7840;42.702;23.296;2023-05-10T14:21:13;7.05;;;6.40;;
15476;SDS011;7840;42.702;23.296;2023-05-10T14:23:40;12.30;;;6.28;;
15476;SDS011;7840;42.702;23.296;2023-05-10T14:26:07;8.65;;;6.47;;
15476;SDS011;7840;42.702;23.296;2023-05-10T14:28:35;6.40;;;5.80;;
15476;SDS011;7840;42.702;23.296;2023-05-10T14:31:03;7.18;;;6.13;;
15476;SDS011;7840;42.702;23.296;2023-05-10T14:33:31;9.07;;;6.60;;
15476;SDS011;7840;42.702;23.296;2023-05-10T14:35:58;7.25;;;6.55;;
15476;SDS011;7840;42.702;23.296;2023-05-10T14:38:25;9.20;;;6.13;;
15476;SDS011;7840;42.702;23.296;2023-05-10T14:40:53;6.97;;;6.05;;
15476;SDS011;7840;42.702;23.296;2023-05-10T14:43:20;8.20;;;6.75;;
15476;SDS011;7840;42.702;23.296;2023-05-10T14:45:48;6.70;;;6.10;;
15476;SDS011;7840;42.702;23.296;2023-05-10T14:48:16;21.25;;;6.30;;
15476;SDS011;7840;42.702;23.296;2023-05-10T14:50:44;8.15;;;6.55;;
15476;SDS011;7840;42.702;23.296;2023-05-10T14:53:12;9.30;;;6.35;;
15476;SDS011;7840;42.702;23.296;2023-05-10T14:55:46;7.38;;;6.13;;
15476;SDS011;7840;42.702;23.296;2023-05-10T14:58:13;8.40;;;6.78;;
15476;SDS011;7840;42.702;23.296;2023-05-10T15:00:40;7.65;;;6.35;;
15476;SDS011;7840;42.702;23.296;2023-05-10T15:03:08;7.18;;;6.45;;
15476;SDS011;7840;42.702;23.296;2023-05-10T15:05:37;7.50;;;6.60;;
15476;SDS011;7840;42.702;23.296;2023-05-10T15:08:04;10.85;;;6.80;;